createdAt,value
2023-02-22T00:00:50.058Z,16.10
2023-02-22T00:03:19.197Z,15.63
2023-02-22T00:05:47.497Z,17.80
2023-02-22T00:08:18.296Z,19.00
2023-02-22T00:10:45.944Z,22.20
2023-02-22T00:13:14.548Z,17.17
2023-02-22T00:15:41.987Z,12.87
2023-02-22T00:18:11.181Z,15.50
2023-02-22T00:20:38.948Z,16.83
2023-02-22T00:23:13.732Z,18.60
2023-02-22T00:25:41.252Z,19.17
2023-02-22T00:28:08.820Z,15.53
2023-02-22T00:30:36.833Z,16.60
2023-02-22T00:33:06.108Z,19.00
2023-02-22T00:35:34.887Z,17.90
2023-02-22T00:38:02.729Z,18.57
2023-02-22T00:40:31.780Z,18.53
2023-02-22T00:43:00.138Z,25.07
2023-02-22T00:45:29.006Z,21.17
2023-02-22T00:47:59.808Z,16.40
2023-02-22T00:50:28.133Z,16.70
2023-02-22T00:52:56.723Z,17.20
2023-02-22T00:55:26.527Z,18.63
2023-02-22T00:57:54.565Z,19.03
2023-02-22T01:00:28.539Z,16.13
2023-02-22T01:02:56.966Z,13.97
2023-02-22T01:05:26.777Z,17.43
2023-02-22T01:07:55.770Z,14.20
2023-02-22T01:10:24.977Z,20.30
2023-02-22T01:12:53.075Z,13.97
2023-02-22T01:15:24.346Z,20.43
2023-02-22T01:17:53.614Z,16.23
2023-02-22T01:20:29.236Z,17.03
2023-02-22T01:23:00.047Z,20.10
2023-02-22T01:25:30.895Z,23.33
2023-02-22T01:27:59.582Z,15.57
2023-02-22T01:30:33.104Z,15.57
2023-02-22T01:33:01.826Z,17.80
2023-02-22T01:35:30.773Z,15.40
2023-02-22T01:38:01.588Z,16.43
2023-02-22T01:40:36.954Z,19.43
2023-02-22T01:43:06.429Z,18.60
2023-02-22T01:45:33.799Z,15.00
2023-02-22T01:48:20.321Z,16.90
2023-02-22T01:51:11.282Z,16.97
2023-02-22T01:53:56.269Z,18.43
2023-02-22T02:04:44.269Z,17.00
2023-02-22T02:07:13.766Z,16.10
2023-02-22T02:09:45.599Z,15.53
2023-02-22T02:12:14.692Z,10.37
2023-02-22T02:14:43.926Z,11.57
2023-02-22T02:17:12.716Z,16.17
2023-02-22T02:19:49.411Z,13.53
2023-02-22T02:22:16.777Z,15.37
2023-02-22T02:24:50.398Z,12.37
2023-02-22T02:27:23.242Z,15.17
2023-02-22T02:29:53.158Z,14.10
2023-02-22T02:32:28.721Z,16.93
2023-02-22T02:34:59.356Z,10.27
2023-02-22T02:37:40.050Z,14.23
2023-02-22T02:40:11.387Z,12.33
2023-02-22T02:43:05.169Z,12.10
2023-02-22T02:45:38.982Z,13.63
2023-02-22T02:48:08.013Z,13.07
2023-02-22T02:50:41.648Z,12.70
2023-02-22T02:53:09.458Z,12.03
2023-02-22T02:55:37.763Z,16.10
2023-02-22T02:58:06.411Z,14.70
2023-02-22T03:00:39.472Z,12.80
2023-02-22T03:03:10.437Z,13.17
2023-02-22T03:05:56.983Z,14.60
2023-02-22T03:08:32.879Z,17.50
2023-02-22T03:11:04.649Z,12.67
2023-02-22T03:13:52.004Z,13.27
2023-02-22T03:16:29.847Z,14.67
2023-02-22T03:19:04.792Z,15.30
2023-02-22T03:21:39.296Z,13.40
2023-02-22T03:24:17.065Z,14.07
2023-02-22T03:26:47.203Z,15.93
2023-02-22T03:29:17.985Z,12.70
2023-02-22T03:31:49.166Z,16.00
2023-02-22T03:34:20.191Z,13.90
2023-02-22T03:36:52.694Z,13.37
2023-02-22T03:39:20.709Z,11.27
2023-02-22T03:41:51.672Z,13.13
2023-02-22T03:44:27.635Z,17.83
2023-02-22T03:46:56.942Z,13.47
2023-02-22T03:49:36.882Z,12.83
2023-02-22T03:52:07.821Z,13.10
2023-02-22T03:54:36.308Z,15.30
2023-02-22T03:57:22.125Z,12.67
2023-02-22T03:59:53.833Z,14.67
2023-02-22T04:02:23.781Z,13.03
2023-02-22T04:04:51.959Z,9.53
2023-02-22T04:07:19.790Z,15.77
2023-02-22T04:09:47.579Z,15.10
2023-02-22T04:12:16.207Z,15.23
2023-02-22T04:15:15.615Z,17.73
2023-02-22T04:17:43.873Z,15.83
2023-02-22T04:20:14.671Z,13.40
2023-02-22T04:22:49.585Z,13.53
2023-02-22T04:25:17.569Z,21.17
2023-02-22T04:27:47.537Z,14.43
2023-02-22T04:30:18.131Z,12.57
2023-02-22T04:32:45.598Z,14.07
2023-02-22T04:35:14.957Z,14.30
2023-02-22T04:37:43.074Z,14.27
2023-02-22T04:40:11.553Z,15.77
2023-02-22T04:42:39.416Z,14.00
2023-02-22T04:45:08.381Z,14.73
2023-02-22T04:47:37.355Z,15.53
2023-02-22T04:50:07.155Z,12.03
2023-02-22T04:52:35.214Z,16.23
2023-02-22T04:55:02.975Z,15.80
2023-02-22T04:57:30.630Z,14.10
2023-02-22T04:59:58.229Z,15.97
2023-02-22T05:02:26.212Z,15.10
2023-02-22T05:04:53.939Z,14.20
2023-02-22T05:07:21.413Z,16.83
2023-02-22T05:09:49.059Z,14.90
2023-02-22T05:12:16.520Z,15.57
2023-02-22T05:14:44.571Z,14.07
2023-02-22T05:17:12.051Z,13.43
2023-02-22T05:19:39.500Z,16.63
2023-02-22T05:22:06.981Z,14.83
2023-02-22T05:24:35.142Z,14.27
2023-02-22T05:27:02.592Z,13.93
2023-02-22T05:29:30.003Z,21.10
2023-02-22T05:32:00.374Z,16.13
2023-02-22T05:34:27.854Z,14.07
2023-02-22T05:36:55.181Z,17.57
2023-02-22T05:39:22.926Z,16.60
2023-02-22T05:41:50.417Z,16.40
2023-02-22T05:44:17.944Z,13.00
2023-02-22T05:46:45.387Z,12.40
2023-02-22T05:49:12.841Z,14.20
2023-02-22T05:51:40.334Z,20.83
2023-02-22T05:54:07.826Z,17.47
2023-02-22T05:56:36.376Z,13.13
2023-02-22T05:59:03.974Z,19.07
2023-02-22T06:01:31.483Z,15.33
2023-02-22T06:03:59.041Z,17.10
2023-02-22T06:06:26.565Z,14.97
2023-02-22T06:08:54.045Z,14.03
2023-02-22T06:11:22.058Z,16.03
2023-02-22T06:13:52.869Z,15.87
2023-02-22T06:16:21.322Z,16.27
2023-02-22T06:18:49.095Z,13.70
2023-02-22T06:21:17.713Z,20.97
2023-02-22T06:23:45.662Z,14.77
2023-02-22T06:26:18.676Z,10.00
2023-02-22T06:28:47.109Z,17.03
2023-02-22T06:31:14.979Z,18.73
2023-02-22T06:33:42.524Z,17.50
2023-02-22T06:36:10.602Z,15.10
2023-02-22T06:38:38.050Z,16.93
2023-02-22T06:41:05.550Z,15.77
2023-02-22T06:43:32.952Z,12.70
2023-02-22T06:46:00.581Z,15.33
2023-02-22T06:48:28.103Z,15.30
2023-02-22T06:50:55.729Z,16.97
2023-02-22T06:53:23.326Z,17.93
2023-02-22T06:55:50.909Z,14.63
2023-02-22T06:58:18.522Z,13.57
2023-02-22T07:00:45.917Z,16.10
2023-02-22T07:03:14.363Z,15.57
2023-02-22T07:05:41.998Z,17.93
2023-02-22T07:08:09.559Z,14.93
2023-02-22T07:10:40.807Z,17.57
2023-02-22T07:13:09.369Z,14.57
2023-02-22T07:15:37.082Z,11.37
2023-02-22T07:18:07.812Z,16.93
2023-02-22T07:20:37.533Z,17.40
2023-02-22T07:23:05.999Z,15.57
2023-02-22T07:25:36.614Z,15.23
2023-02-22T07:28:04.511Z,13.90
2023-02-22T07:30:34.180Z,12.63
2023-02-22T07:33:03.352Z,13.37
2023-02-22T07:35:38.193Z,18.60
2023-02-22T07:38:08.927Z,12.73
2023-02-22T07:40:37.607Z,14.53
2023-02-22T07:43:18.331Z,15.50
2023-02-22T07:45:46.522Z,14.90
2023-02-22T07:48:16.919Z,13.80
2023-02-22T07:50:48.345Z,13.23
2023-02-22T07:53:19.441Z,16.97
2023-02-22T07:55:50.986Z,13.13
2023-02-22T07:58:20.282Z,11.07
2023-02-22T08:00:48.534Z,13.63
2023-02-22T08:03:17.660Z,13.83
2023-02-22T08:05:49.954Z,13.27
2023-02-22T08:08:19.952Z,14.63
2023-02-22T08:10:48.093Z,15.53
2023-02-22T08:13:16.162Z,14.37
2023-02-22T08:15:47.325Z,16.67
2023-02-22T08:18:16.413Z,15.33
2023-02-22T08:20:44.819Z,14.27
2023-02-22T08:23:13.065Z,11.53
2023-02-22T08:25:40.555Z,11.03
2023-02-22T08:28:20.274Z,9.07
2023-02-22T08:30:48.083Z,11.43
2023-02-22T08:33:19.719Z,13.80
2023-02-22T08:35:51.984Z,11.60
2023-02-22T08:38:31.192Z,13.10
2023-02-22T08:41:01.504Z,8.67
2023-02-22T08:43:32.526Z,12.00
2023-02-22T08:46:00.991Z,11.20
2023-02-22T08:48:28.992Z,9.57
2023-02-22T08:50:56.903Z,13.73
2023-02-22T08:53:24.350Z,10.37
2023-02-22T08:55:54.253Z,12.00
2023-02-22T08:58:23.661Z,11.97
2023-02-22T09:00:51.297Z,10.60
2023-02-22T09:03:19.215Z,14.37
2023-02-22T09:05:47.218Z,12.80
2023-02-22T09:08:16.848Z,17.38
2023-02-22T09:10:45.714Z,9.57
2023-02-22T09:13:13.857Z,11.77
2023-02-22T09:15:53.292Z,9.23
2023-02-22T09:18:23.708Z,11.30
2023-02-22T09:20:55.701Z,13.30
2023-02-22T09:23:23.976Z,11.23
2023-02-22T09:25:53.803Z,14.80
2023-02-22T09:28:23.457Z,11.87
2023-02-22T09:30:51.114Z,10.23
2023-02-22T09:33:22.532Z,8.33
2023-02-22T09:35:50.908Z,12.17
2023-02-22T09:38:20.036Z,10.73
2023-02-22T09:40:55.046Z,14.47
2023-02-22T09:43:42.779Z,14.97
2023-02-22T09:46:19.260Z,10.17
2023-02-22T09:49:07.612Z,9.90
2023-02-22T09:51:42.578Z,9.03
2023-02-22T09:54:17.819Z,11.13
2023-02-22T09:56:59.593Z,13.33
2023-02-22T09:59:33.557Z,10.87
2023-02-22T10:02:34.637Z,14.77
2023-02-22T10:05:13.674Z,11.40
2023-02-22T10:07:52.153Z,10.70
2023-02-22T10:10:25.695Z,13.27
2023-02-22T10:12:53.526Z,11.07
2023-02-22T10:15:21.616Z,12.60
2023-02-22T10:18:07.926Z,13.03
2023-02-22T10:20:43.023Z,12.93
2023-02-22T10:23:19.774Z,14.17
2023-02-22T10:25:53.319Z,13.10
2023-02-22T10:28:28.912Z,11.57
2023-02-22T10:31:04.866Z,10.57
2023-02-22T10:33:39.658Z,9.37
2023-02-22T10:36:17.084Z,13.00
2023-02-22T10:38:51.638Z,10.13
2023-02-22T10:41:30.737Z,11.50
2023-02-22T10:43:59.201Z,9.70
2023-02-22T10:46:29.993Z,9.03
2023-02-22T10:49:04.303Z,9.77
2023-02-22T10:51:39.287Z,9.20
2023-02-22T10:54:15.267Z,10.53
2023-02-22T10:56:56.923Z,10.33
2023-02-22T10:59:35.168Z,10.23
2023-02-22T11:05:41.499Z,10.97
2023-02-22T11:08:24.637Z,10.57
2023-02-22T11:11:01.522Z,11.57
2023-02-22T11:13:34.075Z,9.10
2023-02-22T11:16:20.531Z,12.77
2023-02-22T11:18:50.720Z,10.87
2023-02-22T11:21:24.532Z,9.77
2023-02-22T11:24:05.098Z,10.77
2023-02-22T11:26:50.353Z,11.53
2023-02-22T11:29:47.916Z,12.33
2023-02-22T11:32:22.403Z,9.47
2023-02-22T11:35:03.574Z,10.13
2023-02-22T11:37:39.529Z,11.20
2023-02-22T11:40:21.733Z,8.87
2023-02-22T11:42:50.827Z,13.07
2023-02-22T11:45:25.243Z,12.07
2023-02-22T11:47:57.550Z,9.40
2023-02-22T11:50:43.800Z,9.23
2023-02-22T11:56:35.680Z,11.10
2023-02-22T11:59:08.962Z,9.17
2023-02-22T12:01:47.244Z,10.27
2023-02-22T12:04:33.854Z,8.93
2023-02-22T12:07:11.084Z,10.27
2023-02-22T12:09:59.047Z,9.30
2023-02-22T12:12:57.514Z,9.73
2023-02-22T12:15:25.271Z,9.80
2023-02-22T12:18:00.484Z,11.73
2023-02-22T12:20:32.911Z,9.43
2023-02-22T12:23:03.331Z,6.70
2023-02-22T12:25:40.929Z,9.87
2023-02-22T12:28:24.369Z,12.10
2023-02-22T12:31:08.656Z,9.47
2023-02-22T12:33:43.760Z,8.13
2023-02-22T12:36:16.567Z,8.77
2023-02-22T12:38:45.788Z,7.67
2023-02-22T12:41:32.582Z,11.00
2023-02-22T12:44:02.916Z,12.70
2023-02-22T12:46:44.692Z,9.23
2023-02-22T12:49:14.747Z,10.23
2023-02-22T12:52:20.526Z,11.50
2023-02-22T12:54:58.219Z,10.33
2023-02-22T12:57:38.854Z,7.83
2023-02-22T13:00:17.317Z,10.30
2023-02-22T13:02:47.065Z,10.13
2023-02-22T13:05:19.154Z,9.57
2023-02-22T13:07:53.822Z,10.20
2023-02-22T13:10:52.751Z,8.53
2023-02-22T13:13:30.144Z,9.30
2023-02-22T13:16:16.919Z,10.97
2023-02-22T13:18:54.576Z,8.27
2023-02-22T13:21:27.006Z,7.57
2023-02-22T13:24:05.568Z,10.93
2023-02-22T13:26:53.760Z,8.17
2023-02-22T13:29:28.749Z,12.40
2023-02-22T13:32:14.619Z,11.37
2023-02-22T13:35:03.998Z,11.07
2023-02-22T13:38:03.879Z,9.60
2023-02-22T13:40:50.797Z,10.17
2023-02-22T13:43:33.731Z,8.03
2023-02-22T13:46:09.903Z,12.63
2023-02-22T13:48:58.293Z,8.80
2023-02-22T13:51:41.655Z,8.33
2023-02-22T13:54:21.889Z,9.90
2023-02-22T13:56:51.703Z,12.37
2023-02-22T13:59:36.397Z,10.97
2023-02-22T14:02:14.537Z,12.17
2023-02-22T14:04:47.327Z,10.60
2023-02-22T14:07:26.443Z,11.60
2023-02-22T14:09:56.873Z,9.97
2023-02-22T14:12:30.432Z,11.27
2023-02-22T14:15:30.349Z,9.53
2023-02-22T14:18:05.450Z,11.97
2023-02-22T14:20:36.838Z,11.17
2023-02-22T14:23:23.350Z,13.77
2023-02-22T14:25:51.311Z,9.00
2023-02-22T14:28:38.421Z,10.73
2023-02-22T14:31:35.995Z,10.87
2023-02-22T14:34:06.299Z,11.37
2023-02-22T14:36:48.976Z,9.20
2023-02-22T14:39:33.969Z,10.07
2023-02-22T14:42:20.071Z,13.07
2023-02-22T14:44:57.016Z,8.47
2023-02-22T14:47:29.492Z,9.73
2023-02-22T14:50:11.920Z,9.27
2023-02-22T14:52:39.680Z,12.93
2023-02-22T14:55:23.434Z,11.67
2023-02-22T14:57:54.492Z,13.20
2023-02-22T15:00:33.150Z,12.23
2023-02-22T15:03:06.102Z,9.70
2023-02-22T15:05:39.838Z,9.83
2023-02-22T15:08:10.810Z,13.20
2023-02-22T15:10:43.323Z,12.20
2023-02-22T15:13:25.638Z,12.63
2023-02-22T15:16:01.268Z,9.43
2023-02-22T15:18:32.746Z,11.57
2023-02-22T15:21:07.065Z,12.43
2023-02-22T15:24:01.510Z,10.93
2023-02-22T15:26:35.250Z,10.97
2023-02-22T15:29:08.347Z,11.17
2023-02-22T15:31:42.105Z,9.67
2023-02-22T15:34:31.525Z,11.53
2023-02-22T15:37:25.637Z,11.53
2023-02-22T15:39:59.768Z,9.07
2023-02-22T15:42:30.489Z,9.27
2023-02-22T15:44:58.302Z,10.90
2023-02-22T15:47:32.912Z,8.53
2023-02-22T15:50:18.626Z,13.43
2023-02-22T15:52:58.569Z,10.23
2023-02-22T15:55:29.762Z,12.70
2023-02-22T15:58:10.862Z,12.27
2023-02-22T16:00:41.401Z,10.43
2023-02-22T16:03:10.528Z,12.53
2023-02-22T16:05:48.484Z,12.77
2023-02-22T16:08:16.132Z,14.50
2023-02-22T16:10:49.926Z,11.00
2023-02-22T16:13:33.051Z,14.90
2023-02-22T16:16:02.367Z,14.67
2023-02-22T16:18:34.729Z,13.40
2023-02-22T16:21:13.224Z,14.93
2023-02-22T16:23:50.547Z,11.13
2023-02-22T16:26:24.031Z,12.30
2023-02-22T16:29:09.987Z,10.37
2023-02-22T16:31:40.959Z,19.23
2023-02-22T16:34:11.214Z,12.00
2023-02-22T16:36:46.372Z,14.10
2023-02-22T16:39:20.866Z,15.03
2023-02-22T16:41:51.518Z,14.63
2023-02-22T16:44:19.130Z,19.10
2023-02-22T16:46:49.853Z,13.80
2023-02-22T16:49:17.660Z,16.07
2023-02-22T16:51:49.841Z,18.00
2023-02-22T16:54:21.691Z,17.67
2023-02-22T16:56:49.466Z,15.03
2023-02-22T16:59:17.423Z,13.53
2023-02-22T17:01:45.326Z,14.27
2023-02-22T17:04:18.139Z,13.93
2023-02-22T17:06:46.790Z,14.10
2023-02-22T17:09:17.192Z,12.60
2023-02-22T17:11:51.379Z,13.57
2023-02-22T17:14:23.374Z,18.23
2023-02-22T17:16:51.601Z,16.10
2023-02-22T17:19:21.251Z,14.73
2023-02-22T17:21:49.751Z,20.47
2023-02-22T17:24:20.278Z,18.77
2023-02-22T17:26:52.902Z,15.40
2023-02-22T17:29:23.184Z,13.60
2023-02-22T17:31:50.892Z,14.07
2023-02-22T17:34:18.400Z,16.67
2023-02-22T17:36:46.708Z,20.20
2023-02-22T17:39:14.272Z,16.90
2023-02-22T17:41:42.190Z,15.00
2023-02-22T17:44:11.466Z,18.40
2023-02-22T17:46:41.017Z,13.60
2023-02-22T17:49:09.250Z,16.57
2023-02-22T17:51:39.871Z,16.00
2023-02-22T17:54:09.433Z,14.97
2023-02-22T17:56:37.850Z,18.97
2023-02-22T17:59:09.114Z,15.90
2023-02-22T18:01:39.924Z,17.80
2023-02-22T18:04:07.675Z,18.03
2023-02-22T18:06:36.292Z,15.03
2023-02-22T18:09:13.592Z,16.93
2023-02-22T18:11:43.168Z,14.90
2023-02-22T18:14:13.594Z,16.67
2023-02-22T18:16:47.615Z,15.97
2023-02-22T18:19:20.437Z,12.73
2023-02-22T18:21:49.861Z,15.40
2023-02-22T18:27:39.431Z,15.90
2023-02-22T18:30:07.694Z,15.13
2023-02-22T18:32:35.038Z,15.00
2023-02-22T18:35:02.665Z,14.93
2023-02-22T18:37:29.932Z,14.97
2023-02-22T18:39:57.587Z,13.03
2023-02-22T18:42:25.792Z,14.03
2023-02-22T18:44:54.460Z,17.30
2023-02-22T18:47:22.433Z,13.10
2023-02-22T18:49:55.114Z,14.90
2023-02-22T18:52:31.057Z,14.90
2023-02-22T18:55:02.988Z,14.20
2023-02-22T18:58:04.777Z,15.50
2023-02-22T19:00:36.284Z,15.20
2023-02-22T19:03:05.045Z,14.73
2023-02-22T19:05:33.297Z,14.53
2023-02-22T19:08:01.056Z,16.80
2023-02-22T19:10:29.059Z,14.60
2023-02-22T19:12:56.358Z,17.07
2023-02-22T19:15:28.180Z,14.23
2023-02-22T19:17:56.629Z,15.10
2023-02-22T19:20:25.625Z,14.63
2023-02-22T19:22:53.667Z,17.30
2023-02-22T19:25:21.055Z,17.93
2023-02-22T19:27:48.432Z,15.63
2023-02-22T19:30:17.270Z,13.10
2023-02-22T19:32:47.407Z,18.90
2023-02-22T19:35:26.104Z,15.27
2023-02-22T19:37:54.193Z,14.13
2023-02-22T19:40:23.180Z,17.73
2023-02-22T19:42:55.181Z,13.67
2023-02-22T19:45:23.256Z,13.67
2023-02-22T19:47:54.368Z,14.13
2023-02-22T19:50:21.964Z,11.63
2023-02-22T19:52:49.443Z,16.03
2023-02-22T19:55:16.910Z,18.60
2023-02-22T19:57:46.437Z,11.33
2023-02-22T20:00:23.606Z,13.70
2023-02-22T20:03:05.930Z,14.43
2023-02-22T20:05:37.201Z,12.53
2023-02-22T20:08:06.647Z,12.43
2023-02-22T20:10:37.095Z,12.07
2023-02-22T20:13:04.488Z,13.97
2023-02-22T20:15:34.184Z,13.07
2023-02-22T20:18:01.751Z,16.73
2023-02-22T20:20:30.870Z,16.23
2023-02-22T20:22:58.297Z,16.17
2023-02-22T20:25:25.764Z,16.67
2023-02-22T20:27:53.196Z,18.97
2023-02-22T20:30:20.677Z,18.30
2023-02-22T20:32:48.224Z,13.13
2023-02-22T20:35:19.438Z,15.67
2023-02-22T20:37:46.912Z,14.07
2023-02-22T20:40:14.536Z,18.63
2023-02-22T20:42:41.912Z,16.10
2023-02-22T20:45:14.407Z,15.60
2023-02-22T20:47:41.947Z,13.67
2023-02-22T20:50:09.965Z,13.73
2023-02-22T20:52:37.431Z,15.50
2023-02-22T20:55:06.201Z,13.70
2023-02-22T20:57:33.598Z,14.97
2023-02-22T21:00:00.919Z,12.77
2023-02-22T21:02:28.551Z,17.37
2023-02-22T21:04:55.992Z,12.23
2023-02-22T21:07:23.519Z,14.20
2023-02-22T21:09:51.039Z,18.10
2023-02-22T21:12:18.509Z,14.33
2023-02-22T21:14:45.972Z,18.50
2023-02-22T21:17:13.453Z,19.27
2023-02-22T21:19:40.767Z,11.57
2023-02-22T21:22:08.406Z,16.33
2023-02-22T21:24:36.972Z,16.77
2023-02-22T21:27:06.809Z,17.07
2023-02-22T21:29:35.537Z,20.63
2023-02-22T21:32:03.433Z,20.67
2023-02-22T21:34:31.457Z,17.40
2023-02-22T21:36:58.925Z,16.23
2023-02-22T21:39:28.729Z,13.20
2023-02-22T21:42:00.591Z,18.10
2023-02-22T21:44:28.440Z,16.87
2023-02-22T21:46:55.971Z,20.27
2023-02-22T21:49:23.682Z,18.07
2023-02-22T21:51:51.819Z,15.93
2023-02-22T21:54:19.475Z,14.90
2023-02-22T21:56:46.866Z,14.40
2023-02-22T21:59:22.642Z,19.00
2023-02-22T22:01:55.804Z,16.90
2023-02-22T22:04:24.733Z,17.47
2023-02-22T22:06:58.855Z,14.73
2023-02-22T22:09:29.260Z,18.77
2023-02-22T22:12:12.337Z,17.10
2023-02-22T22:14:40.389Z,14.10
2023-02-22T22:17:09.391Z,16.50
2023-02-22T22:19:40.814Z,17.30
2023-02-22T22:22:09.081Z,16.40
2023-02-22T22:24:36.889Z,19.10
2023-02-22T22:27:06.586Z,16.33
2023-02-22T22:29:35.605Z,18.97
2023-02-22T22:32:03.513Z,13.40
2023-02-22T22:34:31.142Z,13.03
2023-02-22T22:36:58.974Z,14.33
2023-02-22T22:39:26.998Z,15.80
2023-02-22T22:41:54.514Z,19.80
2023-02-22T22:44:28.898Z,17.83
2023-02-22T22:46:56.395Z,20.10
2023-02-22T22:49:25.473Z,11.87
2023-02-22T22:51:53.527Z,15.53
2023-02-22T22:54:21.033Z,15.90
2023-02-22T22:56:48.461Z,17.83
2023-02-22T22:59:16.220Z,16.27
2023-02-22T23:01:44.868Z,13.50
2023-02-22T23:04:24.292Z,13.50
2023-02-22T23:06:53.172Z,14.27
2023-02-22T23:09:22.018Z,16.70
2023-02-22T23:11:53.660Z,13.43
2023-02-22T23:14:34.187Z,15.77
2023-02-22T23:17:03.284Z,16.03
2023-02-22T23:19:32.020Z,14.57
2023-02-22T23:21:59.574Z,15.57
2023-02-22T23:24:28.550Z,15.07
2023-02-22T23:27:00.248Z,16.63
2023-02-22T23:29:29.963Z,20.33
2023-02-22T23:32:01.014Z,19.07
2023-02-22T23:34:29.023Z,15.57
2023-02-22T23:36:56.576Z,17.03
2023-02-22T23:39:24.716Z,17.20
2023-02-22T23:41:57.719Z,19.20
2023-02-22T23:44:31.207Z,14.93
2023-02-22T23:47:01.021Z,18.50
2023-02-22T23:49:38.985Z,19.27
2023-02-22T23:52:07.132Z,20.23
2023-02-22T23:54:43.891Z,15.13
2023-02-22T23:57:11.632Z,18.57
2023-02-22T23:59:40.520Z,14.17
